createdAt,value
2022-08-05T00:00:16.854Z,2.95
2022-08-05T00:03:04.215Z,2.70
2022-08-05T00:06:06.681Z,2.95
2022-08-05T00:08:34.269Z,3.13
2022-08-05T00:11:03.889Z,2.88
2022-08-05T00:13:39.503Z,2.72
2022-08-05T00:16:12.222Z,2.80
2022-08-05T00:18:42.498Z,2.97
2022-08-05T00:21:11.833Z,3.20
2022-08-05T00:23:46.452Z,2.90
2022-08-05T00:26:20.880Z,2.70
2022-08-05T00:28:49.429Z,2.60
2022-08-05T00:31:16.545Z,2.80
2022-08-05T00:34:55.584Z,3.67
2022-08-05T00:37:13.139Z,3.70
2022-08-05T00:39:41.496Z,3.33
2022-08-05T00:42:11.744Z,3.25
2022-08-05T00:44:58.976Z,3.53
2022-08-05T00:47:26.441Z,3.30
2022-08-05T00:50:13.576Z,3.63
2022-08-05T00:52:40.677Z,3.20
2022-08-05T00:55:07.850Z,3.67
2022-08-05T00:57:55.191Z,3.47
2022-08-05T01:00:22.039Z,2.90
2022-08-05T01:02:53.169Z,3.60
2022-08-05T01:05:20.176Z,3.17
2022-08-05T01:08:30.419Z,3.00
2022-08-05T01:10:38.738Z,3.15
2022-08-05T01:13:13.225Z,3.00
2022-08-05T01:16:05.319Z,3.05
2022-08-05T01:18:35.036Z,3.50
2022-08-05T01:21:22.734Z,4.03
2022-08-05T01:24:21.041Z,4.43
2022-08-05T01:27:32.962Z,4.20
2022-08-05T01:30:03.106Z,4.70
2022-08-05T01:32:34.022Z,5.07
2022-08-05T01:35:03.714Z,4.75
2022-08-05T01:37:46.252Z,3.47
2022-08-05T01:40:14.594Z,4.10
2022-08-05T01:42:46.593Z,4.10
2022-08-05T01:45:16.376Z,4.72
2022-08-05T01:47:44.262Z,3.97
2022-08-05T01:50:15.166Z,5.00
2022-08-05T01:52:44.538Z,5.13
2022-08-05T01:55:18.541Z,4.30
2022-08-05T01:58:11.158Z,3.80
2022-08-05T02:00:35.968Z,4.60
2022-08-05T02:03:31.512Z,5.10
2022-08-05T02:06:03.641Z,5.40
2022-08-05T02:08:58.382Z,4.40
2022-08-05T02:11:33.614Z,3.90
2022-08-05T02:14:04.240Z,1.77
2022-08-05T02:16:35.236Z,1.90
2022-08-05T02:19:25.971Z,3.65
2022-08-05T02:22:25.497Z,3.22
2022-08-05T02:24:56.547Z,1.80
2022-08-05T02:27:30.219Z,2.90
2022-08-05T02:30:16.860Z,3.15
2022-08-05T02:32:49.956Z,3.20
2022-08-05T02:35:27.760Z,2.10
2022-08-05T02:38:02.325Z,1.90
2022-08-05T02:40:30.213Z,1.30
2022-08-05T02:42:58.833Z,4.70
2022-08-05T02:45:26.524Z,4.63
2022-08-05T02:48:06.428Z,4.47
2022-08-05T02:50:43.913Z,3.92
2022-08-05T02:53:18.906Z,4.80
2022-08-05T02:55:54.190Z,1.13
2022-08-05T02:58:23.245Z,2.50
2022-08-05T03:00:59.502Z,3.03
2022-08-05T03:03:34.120Z,2.03
2022-08-05T03:06:53.999Z,0.85
2022-08-05T03:09:03.803Z,1.38
2022-08-05T03:11:54.693Z,2.35
2022-08-05T03:14:18.318Z,2.22
2022-08-05T03:16:46.304Z,2.58
2022-08-05T03:19:20.315Z,4.50
2022-08-05T03:22:00.437Z,4.53
2022-08-05T03:24:30.858Z,3.38
2022-08-05T03:26:59.127Z,4.80
2022-08-05T03:29:45.704Z,3.83
2022-08-05T03:32:15.488Z,4.00
2022-08-05T03:34:51.201Z,3.05
2022-08-05T03:37:20.796Z,3.83
2022-08-05T03:40:01.193Z,3.60
2022-08-05T03:42:32.329Z,3.42
2022-08-05T03:45:01.811Z,4.25
2022-08-05T03:47:47.668Z,4.43
2022-08-05T03:50:16.561Z,4.00
2022-08-05T03:55:00.365Z,4.10
2022-08-05T03:56:09.971Z,4.28
2022-08-05T03:58:41.145Z,5.10
2022-08-05T04:01:11.084Z,5.82
2022-08-05T04:03:39.729Z,5.57
2022-08-05T04:06:08.648Z,5.40
2022-08-05T04:08:37.040Z,6.07
2022-08-05T04:11:06.051Z,6.55
2022-08-05T04:13:50.085Z,6.38
2022-08-05T04:16:24.266Z,5.72
2022-08-05T04:18:59.949Z,6.25
2022-08-05T04:22:08.318Z,6.40
2022-08-05T04:24:19.242Z,6.82
2022-08-05T04:26:50.249Z,6.03
2022-08-05T04:29:17.168Z,6.18
2022-08-05T04:31:44.020Z,6.25
2022-08-05T04:34:31.618Z,5.95
2022-08-05T04:37:00.687Z,6.38
2022-08-05T04:39:28.018Z,6.32
2022-08-05T04:41:55.402Z,5.97
2022-08-05T04:44:29.866Z,6.07
2022-08-05T04:46:59.079Z,5.90
2022-08-05T04:49:39.315Z,5.78
2022-08-05T04:52:15.073Z,6.68
2022-08-05T04:54:42.357Z,5.75
2022-08-05T04:57:09.254Z,5.68
2022-08-05T04:59:38.590Z,5.60
2022-08-05T05:02:36.305Z,5.85
2022-08-05T05:05:01.694Z,5.28
2022-08-05T05:07:32.499Z,5.78
2022-08-05T05:10:04.521Z,5.88
2022-08-05T05:12:31.776Z,5.22
2022-08-05T05:14:58.764Z,5.55
2022-08-05T05:17:55.515Z,5.90
2022-08-05T05:20:13.862Z,5.40
2022-08-05T05:22:41.524Z,5.47
2022-08-05T05:25:16.087Z,6.10
2022-08-05T05:27:53.581Z,5.95
2022-08-05T05:30:29.721Z,5.13
2022-08-05T05:33:09.015Z,5.63
2022-08-05T05:35:44.853Z,5.68
2022-08-05T05:38:13.479Z,5.63
2022-08-05T05:40:50.047Z,5.35
2022-08-05T05:43:27.614Z,5.43
2022-08-05T05:46:13.752Z,5.63
2022-08-05T05:48:44.536Z,6.35
2022-08-05T05:51:14.875Z,5.28
2022-08-05T05:53:54.010Z,5.97
2022-08-05T05:56:32.964Z,5.85
2022-08-05T05:59:05.264Z,5.40
2022-08-05T06:01:37.934Z,5.15
2022-08-05T06:04:12.175Z,5.45
2022-08-05T06:06:47.627Z,5.32
2022-08-05T06:09:17.452Z,5.72
2022-08-05T06:12:01.002Z,5.65
2022-08-05T06:14:34.811Z,5.30
2022-08-05T06:17:24.268Z,5.32
2022-08-05T06:19:56.757Z,5.35
2022-08-05T06:22:29.005Z,5.50
2022-08-05T06:24:56.170Z,4.93
2022-08-05T06:28:08.901Z,5.43
2022-08-05T06:30:17.815Z,5.85
2022-08-05T06:32:47.839Z,4.80
2022-08-05T06:36:04.214Z,5.82
2022-08-05T06:38:09.814Z,5.03
2022-08-05T06:40:42.210Z,5.40
2022-08-05T06:43:58.622Z,5.15
2022-08-05T06:46:04.134Z,5.45
2022-08-05T06:48:53.246Z,5.47
2022-08-05T06:51:29.550Z,4.90
2022-08-05T06:54:02.002Z,4.80
2022-08-05T06:56:34.429Z,4.65
2022-08-05T06:59:09.689Z,4.55
2022-08-05T07:01:41.485Z,5.38
2022-08-05T07:04:09.997Z,4.88
2022-08-05T07:06:36.902Z,4.60
2022-08-05T07:09:04.897Z,4.85
2022-08-05T07:11:36.887Z,5.30
2022-08-05T07:14:29.437Z,4.68
2022-08-05T07:18:00.457Z,4.63
2022-08-05T07:22:37.859Z,4.85
2022-08-05T07:25:23.831Z,4.30
2022-08-05T07:27:58.772Z,4.88
2022-08-05T07:30:38.150Z,4.25
2022-08-05T07:33:10.604Z,4.43
2022-08-05T07:36:02.439Z,4.45
2022-08-05T07:38:33.509Z,4.90
2022-08-05T07:42:09.594Z,4.40
2022-08-05T07:43:55.158Z,4.65
2022-08-05T07:46:26.271Z,4.53
2022-08-05T07:49:03.076Z,4.32
2022-08-05T07:51:40.882Z,4.45
2022-08-05T07:54:23.301Z,4.50
2022-08-05T07:57:14.790Z,4.30
2022-08-05T07:59:41.608Z,4.30
2022-08-05T08:02:16.881Z,4.60
2022-08-05T08:04:46.704Z,4.50
2022-08-05T08:07:15.242Z,4.20
2022-08-05T08:09:43.193Z,4.13
2022-08-05T08:12:27.285Z,4.80
2022-08-05T08:14:57.451Z,4.63
2022-08-05T08:17:29.246Z,4.10
2022-08-05T08:20:22.574Z,4.35
2022-08-05T08:22:56.849Z,4.32
2022-08-05T08:25:34.601Z,4.03
2022-08-05T08:28:18.839Z,4.57
2022-08-05T08:30:58.371Z,4.10
2022-08-05T08:33:25.487Z,4.18
2022-08-05T08:36:18.440Z,4.28
2022-08-05T08:38:41.948Z,3.83
2022-08-05T08:41:14.161Z,4.15
2022-08-05T08:45:17.714Z,4.57
2022-08-05T08:46:31.383Z,4.30
2022-08-05T08:49:17.372Z,4.43
2022-08-05T08:52:03.648Z,4.22
2022-08-05T08:54:32.770Z,4.10
2022-08-05T08:57:00.622Z,4.03
2022-08-05T08:59:33.800Z,4.43
2022-08-05T09:02:06.223Z,3.90
2022-08-05T09:04:58.523Z,3.75
2022-08-05T09:07:28.910Z,4.13
2022-08-05T09:09:56.314Z,4.38
2022-08-05T09:12:27.781Z,4.63
2022-08-05T09:14:59.603Z,4.10
2022-08-05T09:17:40.747Z,3.92
2022-08-05T09:20:11.575Z,4.25
2022-08-05T09:23:19.861Z,3.88
2022-08-05T09:26:02.468Z,4.45
2022-08-05T09:28:33.571Z,4.10
2022-08-05T09:31:43.968Z,4.13
2022-08-05T09:34:07.383Z,4.18
2022-08-05T09:36:54.004Z,4.10
2022-08-05T09:39:24.692Z,3.75
2022-08-05T09:42:07.780Z,4.47
2022-08-05T09:44:43.100Z,4.60
2022-08-05T09:47:23.882Z,4.10
2022-08-05T09:49:54.738Z,3.72
2022-08-05T09:52:31.226Z,4.03
2022-08-05T09:55:58.189Z,3.95
2022-08-05T09:57:54.693Z,4.20
2022-08-05T10:00:27.637Z,4.20
2022-08-05T10:02:58.699Z,4.10
2022-08-05T10:05:28.160Z,4.28
2022-08-05T10:08:36.515Z,4.13
2022-08-05T10:10:54.671Z,3.90
2022-08-05T10:13:44.189Z,3.95
2022-08-05T10:16:41.981Z,4.45
2022-08-05T10:19:23.680Z,4.07
2022-08-05T10:21:59.264Z,4.25
2022-08-05T10:24:27.109Z,4.43
2022-08-05T10:27:00.212Z,4.45
2022-08-05T10:30:41.118Z,4.00
2022-08-05T10:33:00.614Z,4.13
2022-08-05T10:35:04.693Z,4.72
2022-08-05T10:37:40.363Z,4.20
2022-08-05T10:40:43.455Z,4.13
2022-08-05T10:43:35.579Z,4.22
2022-08-05T10:46:08.549Z,4.32
2022-08-05T10:48:52.654Z,3.80
2022-08-05T10:51:28.748Z,4.78
2022-08-05T10:54:01.625Z,4.32
2022-08-05T10:56:45.067Z,4.40
2022-08-05T11:00:02.414Z,4.57
2022-08-05T11:02:14.758Z,3.95
2022-08-05T11:05:05.058Z,3.92
2022-08-05T11:07:33.003Z,3.88
2022-08-05T11:10:27.635Z,4.05
2022-08-05T11:12:58.042Z,3.95
2022-08-05T11:16:01.142Z,4.15
2022-08-05T11:18:30.164Z,4.05
2022-08-05T11:21:00.121Z,4.53
2022-08-05T11:24:03.273Z,4.70
2022-08-05T11:26:28.526Z,4.57
2022-08-05T11:29:11.450Z,4.35
2022-08-05T11:31:58.788Z,4.22
2022-08-05T11:34:50.984Z,3.53
2022-08-05T11:38:26.261Z,4.50
2022-08-05T11:41:35.604Z,3.90
2022-08-05T11:44:05.689Z,3.78
2022-08-05T11:47:09.656Z,4.45
2022-08-05T11:49:27.992Z,3.95
2022-08-05T11:51:57.519Z,4.25
2022-08-05T11:54:33.779Z,4.15
2022-08-05T11:57:08.534Z,4.03
2022-08-05T11:59:50.794Z,4.30
2022-08-05T12:02:23.872Z,4.05
2022-08-05T12:04:59.881Z,3.60
2022-08-05T12:08:04.413Z,4.25
2022-08-05T12:10:22.013Z,4.07
2022-08-05T12:12:59.635Z,3.80
2022-08-05T12:15:35.863Z,3.92
2022-08-05T12:18:10.641Z,3.80
2022-08-05T12:20:39.416Z,4.22
2022-08-05T12:23:09.886Z,4.50
2022-08-05T12:25:50.787Z,3.95
2022-08-05T12:28:50.234Z,3.90
2022-08-05T12:31:33.051Z,3.60
2022-08-05T12:34:07.348Z,3.90
2022-08-05T12:36:35.360Z,4.03
2022-08-05T12:39:05.661Z,4.20
2022-08-05T12:41:36.323Z,5.03
2022-08-05T12:44:14.167Z,3.80
2022-08-05T12:46:45.720Z,4.15
2022-08-05T12:49:19.126Z,4.20
2022-08-05T12:52:14.394Z,4.22
2022-08-05T12:54:47.712Z,5.07
2022-08-05T12:57:17.873Z,4.05
2022-08-05T13:00:08.398Z,4.50
2022-08-05T13:02:36.242Z,4.53
2022-08-05T13:05:06.264Z,4.10
2022-08-05T13:07:59.415Z,4.13
2022-08-05T13:10:20.665Z,4.40
2022-08-05T13:12:51.118Z,4.50
2022-08-05T13:15:41.721Z,4.35
2022-08-05T13:18:19.590Z,4.45
2022-08-05T13:20:49.293Z,4.40
2022-08-05T13:23:22.024Z,4.25
2022-08-05T13:25:59.363Z,4.60
2022-08-05T13:28:28.491Z,4.00
2022-08-05T13:30:57.215Z,4.03
2022-08-05T13:34:22.647Z,4.05
2022-08-05T13:36:14.523Z,4.25
2022-08-05T13:38:42.729Z,4.13
2022-08-05T13:41:11.598Z,4.72
2022-08-05T13:43:45.826Z,4.30
2022-08-05T13:46:50.701Z,4.05
2022-08-05T13:49:12.970Z,4.32
2022-08-05T13:51:46.332Z,4.68
2022-08-05T13:54:15.944Z,4.57
2022-08-05T13:56:50.843Z,4.65
2022-08-05T13:59:26.859Z,4.32
2022-08-05T14:01:57.633Z,4.30
2022-08-05T14:04:51.745Z,4.38
2022-08-05T14:08:00.725Z,4.35
2022-08-05T14:10:30.686Z,4.70
2022-08-05T14:12:58.815Z,4.68
2022-08-05T14:16:07.195Z,4.10
2022-08-05T14:18:18.364Z,4.45
2022-08-05T14:20:54.612Z,4.32
2022-08-05T14:23:25.507Z,4.45
2022-08-05T14:25:58.774Z,4.32
2022-08-05T14:28:28.780Z,4.53
2022-08-05T14:31:00.621Z,4.50
2022-08-05T14:33:27.932Z,4.15
2022-08-05T14:36:15.025Z,4.25
2022-08-05T14:38:41.999Z,4.22
2022-08-05T14:41:08.883Z,4.57
2022-08-05T14:44:01.832Z,4.60
2022-08-05T14:46:29.063Z,4.60
2022-08-05T14:49:06.483Z,4.43
2022-08-05T14:51:34.180Z,4.72
2022-08-05T14:54:28.681Z,4.47
2022-08-05T14:56:48.906Z,4.32
2022-08-05T14:59:18.474Z,4.60
2022-08-05T15:01:49.597Z,4.40
2022-08-05T15:04:22.141Z,4.80
2022-08-05T15:06:50.939Z,5.18
2022-08-05T15:09:52.623Z,4.70
2022-08-05T15:12:08.893Z,4.15
2022-08-05T15:14:48.392Z,3.95
2022-08-05T15:17:47.710Z,4.63
2022-08-05T15:20:18.240Z,4.45
2022-08-05T15:22:54.113Z,4.50
2022-08-05T15:25:23.623Z,4.60
2022-08-05T15:28:14.583Z,4.85
2022-08-05T15:30:43.642Z,4.35
2022-08-05T15:33:12.884Z,4.18
2022-08-05T15:35:59.776Z,3.80
2022-08-05T15:38:36.429Z,4.88
2022-08-05T15:41:22.584Z,4.15
2022-08-05T15:43:54.822Z,4.53
2022-08-05T15:46:24.334Z,4.85
2022-08-05T15:49:01.009Z,4.40
2022-08-05T15:52:03.984Z,4.22
2022-08-05T15:54:29.522Z,4.10
2022-08-05T15:57:02.069Z,4.25
2022-08-05T15:59:28.966Z,4.28
2022-08-05T16:01:56.201Z,4.32
2022-08-05T16:04:26.568Z,4.50
2022-08-05T16:06:55.794Z,4.50
2022-08-05T16:09:23.877Z,4.40
2022-08-05T16:11:53.828Z,4.72
2022-08-05T16:14:22.388Z,3.90
2022-08-05T16:16:49.460Z,4.93
2022-08-05T16:19:18.827Z,4.53
2022-08-05T16:21:58.948Z,4.13
2022-08-05T16:24:40.321Z,4.32
2022-08-05T16:27:09.489Z,4.20
2022-08-05T16:29:37.344Z,4.57
2022-08-05T16:32:09.499Z,4.25
2022-08-05T16:34:39.154Z,4.13
2022-08-05T16:38:03.236Z,4.07
2022-08-05T16:40:05.891Z,4.45
2022-08-05T16:42:35.292Z,3.92
2022-08-05T16:46:02.970Z,4.13
2022-08-05T16:47:54.872Z,4.88
2022-08-05T16:50:25.629Z,4.47
2022-08-05T16:52:52.821Z,5.13
2022-08-05T16:55:23.456Z,7.43
2022-08-05T16:57:53.726Z,9.50
2022-08-05T17:00:35.079Z,4.47
2022-08-05T17:03:09.258Z,4.10
2022-08-05T17:05:51.504Z,4.10
2022-08-05T17:08:35.821Z,4.30
2022-08-05T17:11:04.146Z,4.00
2022-08-05T17:13:37.860Z,4.07
2022-08-05T17:16:28.009Z,4.15
2022-08-05T17:18:55.591Z,4.43
2022-08-05T17:21:23.610Z,3.83
2022-08-05T17:24:05.924Z,4.03
2022-08-05T17:26:39.155Z,4.25
2022-08-05T17:29:10.134Z,4.03
2022-08-05T17:31:57.390Z,4.00
2022-08-05T17:34:29.703Z,4.18
2022-08-05T17:36:57.272Z,4.90
2022-08-05T17:39:34.178Z,4.13
2022-08-05T17:42:17.632Z,4.78
2022-08-05T17:44:50.458Z,4.72
2022-08-05T17:47:22.938Z,4.75
2022-08-05T17:50:03.732Z,5.43
2022-08-05T17:52:53.136Z,4.47
2022-08-05T17:55:22.764Z,4.28
2022-08-05T17:57:54.712Z,4.40
2022-08-05T18:00:21.610Z,4.63
2022-08-05T18:02:56.977Z,4.32
2022-08-05T18:05:24.144Z,4.85
2022-08-05T18:07:56.893Z,5.07
2022-08-05T18:10:24.385Z,4.57
2022-08-05T18:12:52.549Z,5.72
2022-08-05T18:15:19.536Z,5.40
2022-08-05T18:18:00.596Z,5.03
2022-08-05T18:20:32.080Z,4.88
2022-08-05T18:23:11.835Z,5.40
2022-08-05T18:25:44.899Z,4.88
2022-08-05T18:28:16.168Z,5.07
2022-08-05T18:30:50.934Z,5.03
2022-08-05T18:33:22.727Z,4.82
2022-08-05T18:36:04.026Z,5.20
2022-08-05T18:38:36.288Z,5.40
2022-08-05T18:41:58.533Z,5.22
2022-08-05T18:43:52.403Z,4.95
2022-08-05T18:46:19.822Z,5.05
2022-08-05T18:48:51.892Z,4.93
2022-08-05T18:52:05.769Z,5.22
2022-08-05T18:54:31.260Z,5.30
2022-08-05T18:57:01.809Z,5.95
2022-08-05T18:59:43.059Z,4.72
2022-08-05T19:02:26.578Z,6.30
2022-08-05T19:05:02.829Z,6.10
2022-08-05T19:07:46.349Z,5.28
2022-08-05T19:10:26.550Z,5.65
2022-08-05T19:12:56.625Z,5.63
2022-08-05T19:15:56.825Z,5.65
2022-08-05T19:18:13.550Z,5.35
2022-08-05T19:20:49.002Z,5.85
2022-08-05T19:24:03.291Z,5.75
2022-08-05T19:26:03.273Z,6.20
2022-08-05T19:28:31.210Z,5.55
2022-08-05T19:31:01.112Z,5.63
2022-08-05T19:33:36.348Z,6.05
2022-08-05T19:36:07.279Z,5.75
2022-08-05T19:38:36.705Z,6.45
2022-08-05T19:41:08.759Z,5.97
2022-08-05T19:44:06.429Z,6.35
2022-08-05T19:46:29.803Z,6.10
2022-08-05T19:49:04.072Z,6.20
2022-08-05T19:52:05.917Z,5.80
2022-08-05T19:54:22.003Z,6.00
2022-08-05T19:56:59.758Z,5.70
2022-08-05T20:00:00.698Z,5.72
2022-08-05T20:02:22.465Z,5.85
2022-08-05T20:04:50.010Z,5.35
2022-08-05T20:07:48.539Z,5.50
2022-08-05T20:10:13.188Z,5.70
2022-08-05T20:12:46.319Z,6.40
2022-08-05T20:15:48.640Z,6.38
2022-08-05T20:18:10.837Z,5.40
2022-08-05T20:20:55.289Z,5.50
2022-08-05T20:23:39.818Z,6.03
2022-08-05T20:26:15.190Z,5.97
2022-08-05T20:28:45.610Z,6.20
2022-08-05T20:31:12.892Z,5.85
2022-08-05T20:33:42.395Z,6.07
2022-08-05T20:36:11.067Z,6.25
2022-08-05T20:38:40.949Z,5.82
2022-08-05T20:41:23.800Z,6.07
2022-08-05T20:43:58.611Z,6.47
2022-08-05T20:46:28.902Z,5.85
2022-08-05T20:48:56.025Z,5.75
2022-08-05T20:51:22.908Z,5.65
2022-08-05T20:53:56.199Z,6.00
2022-08-05T20:56:28.681Z,6.25
2022-08-05T20:58:59.968Z,6.45
2022-08-05T21:01:41.410Z,6.35
2022-08-05T21:04:10.790Z,6.45
2022-08-05T21:06:45.495Z,6.88
2022-08-05T21:09:14.626Z,6.15
2022-08-05T21:12:10.094Z,5.63
2022-08-05T21:14:35.186Z,6.38
2022-08-05T21:17:05.222Z,6.03
2022-08-05T21:19:47.182Z,6.03
2022-08-05T21:22:23.156Z,6.03
2022-08-05T21:24:52.426Z,6.10
2022-08-05T21:27:25.189Z,6.30
2022-08-05T21:29:55.903Z,6.32
2022-08-05T21:32:27.743Z,6.88
2022-08-05T21:35:16.909Z,7.10
2022-08-05T21:37:47.344Z,6.57
2022-08-05T21:40:22.079Z,6.15
2022-08-05T21:42:52.037Z,6.50
2022-08-05T21:45:24.538Z,6.50
2022-08-05T21:47:56.953Z,6.45
2022-08-05T21:50:27.849Z,6.68
2022-08-05T21:52:59.122Z,6.57
2022-08-05T21:56:01.175Z,6.30
2022-08-05T21:58:24.986Z,7.07
2022-08-05T22:00:57.949Z,6.70
2022-08-05T22:03:49.027Z,6.57
2022-08-05T22:06:12.210Z,6.55
2022-08-05T22:08:42.747Z,7.18
2022-08-05T22:11:15.576Z,6.90
2022-08-05T22:14:33.608Z,7.60
2022-08-05T22:16:50.828Z,7.30
2022-08-05T22:19:57.141Z,6.93
2022-08-05T22:22:04.294Z,5.97
2022-08-05T22:24:51.845Z,6.00
2022-08-05T22:28:08.677Z,5.88
2022-08-05T22:30:25.115Z,6.15
2022-08-05T22:33:02.374Z,6.00
2022-08-05T22:35:31.106Z,5.70
2022-08-05T22:38:15.305Z,6.47
2022-08-05T22:40:49.775Z,6.15
2022-08-05T22:43:37.345Z,6.43
2022-08-05T22:46:13.343Z,5.88
2022-08-05T22:48:42.049Z,6.85
2022-08-05T22:51:16.037Z,6.55
2022-08-05T22:53:51.113Z,6.55
2022-08-05T22:56:30.068Z,6.60
2022-08-05T22:58:59.855Z,7.78
2022-08-05T23:02:04.123Z,7.05
2022-08-05T23:04:16.834Z,7.25
2022-08-05T23:06:43.962Z,7.18
2022-08-05T23:09:27.171Z,6.90
2022-08-05T23:11:59.504Z,7.15
2022-08-05T23:14:32.182Z,6.68
2022-08-05T23:17:24.498Z,6.97
2022-08-05T23:20:02.562Z,7.13
2022-08-05T23:22:30.990Z,7.00
2022-08-05T23:24:58.095Z,7.18
2022-08-05T23:27:28.881Z,7.25
2022-08-05T23:29:58.648Z,7.85
2022-08-05T23:32:27.123Z,7.53
2022-08-05T23:34:54.212Z,7.80
2022-08-05T23:37:21.103Z,7.63
2022-08-05T23:39:53.644Z,8.15
2022-08-05T23:42:29.064Z,7.10
2022-08-05T23:44:57.337Z,8.32
2022-08-05T23:47:24.950Z,7.38
2022-08-05T23:49:55.781Z,7.65
2022-08-05T23:52:27.617Z,7.68
2022-08-05T23:55:05.499Z,7.80
2022-08-05T23:57:34.717Z,7.35
